Scholes International At Galveston Airport
KGLS : now visible

Airfield :











YOU CAN JOIN US ON...

 
LOGIN :

Register | Disclaimer

   EN    FR    IT 

 









Legend :    VFR   Marginal VFR   IFR   Intensive IFR   Very Intensive IFR
Visi :
Ceiling :
>= 8 km
>= 3000ft
5 to 8 km
1000 to 3000 ft
1500m to 5 km
500 to 1000 ft
800 to 1500m
200 to 500 ft
< 800m
< 200 ft
Symbols :   Thunderstorms  Fog  Heavy snow  Heavy precipitations  Wind > 20 kt






- Airport Elevation : 6 ft
- IATA code : GLS


KGLS - Scholes International At Galveston

CURRENT METAR :
  • 040652Z AUTO 34007KT 10SM CLR 19/16 A3028 RMK AO2 SLP252 T01940156

EXPIRED METARs :
  • 040552Z AUTO 34007KT 10SM CLR 19/16 A3029 RMK AO2 SLP257 T01940161 10217 20194 402720194 58006
  • 040452Z AUTO 34008KT 10SM FEW048 21/17 A3031 RMK AO2 SLP262 T02060172

TAF KGLS
Valid from the 04 at 06:00 until the 05 at 06:00 UTC


040521Z 0406/0506 35008KT P6SM FEW030 BKN045
FM041000 01008KT 4SM BR BKN015
FM041600 03009KT 6SM BR BKN006
FM042100 07007KT P6SM BKN025
FM050300 12007KT 4SM BR BKN006
KZHU FIR / North America



MET'MAP, your aeronautical weather chart ! - Copyright ORBIFLY December 2007 - Disclaimer

ORBIFLY MET'MAP TEAM :

Programming & Development : Alexandra Zaïnal
Original concept : Baudouin d'Aumeries
Technical & hardware support : Manuel Goepfert
Assistance : Marc-Olivier Méhu




SOURCES & CREDITS :

   NOAA       Earth
Advisory